createdAt,value
2023-01-25T00:01:28.623Z,99016.06
2023-01-25T00:03:55.072Z,99026.41
2023-01-25T00:06:21.562Z,99022.69
2023-01-25T00:08:51.441Z,99015.78
2023-01-25T00:11:18.096Z,99023.44
2023-01-25T00:13:44.512Z,99011.72
2023-01-25T00:16:10.963Z,99013.25
2023-01-25T00:18:37.423Z,99024.38
2023-01-25T00:21:17.426Z,99014.69
2023-01-25T00:23:44.120Z,99010.91
2023-01-25T00:26:10.671Z,99011.38
2023-01-25T00:28:37.220Z,99024.78
2023-01-25T00:31:04.844Z,99019.13
2023-01-25T00:33:37.375Z,99017.34
2023-01-25T00:36:23.850Z,99017.81
2023-01-25T00:38:53.045Z,99013.19
2023-01-25T00:41:19.627Z,99014.81
2023-01-25T00:43:46.070Z,99017.47
2023-01-25T00:46:15.429Z,99014.69
2023-01-25T00:48:41.880Z,99022.38
2023-01-25T00:51:08.351Z,99020.59
2023-01-25T00:53:35.079Z,99016.16
2023-01-25T00:56:01.931Z,99019.34
2023-01-25T00:58:30.538Z,99028.16
2023-01-25T01:00:57.508Z,99019.22
2023-01-25T01:03:24.612Z,99022.19
2023-01-25T01:06:20.463Z,99026.16
2023-01-25T01:08:46.980Z,99029.50
2023-01-25T01:11:13.484Z,99027.50
2023-01-25T01:13:40.510Z,99019.06
2023-01-25T01:16:14.194Z,99022.88
2023-01-25T01:18:42.278Z,99018.31
2023-01-25T01:21:08.874Z,99020.97
2023-01-25T01:23:35.840Z,99025.78
2023-01-25T01:26:02.773Z,99027.13
2023-01-25T01:28:29.719Z,99027.09
2023-01-25T01:31:03.113Z,99027.38
2023-01-25T01:33:35.329Z,99024.09
2023-01-25T01:36:08.924Z,99018.53
2023-01-25T01:38:35.438Z,99032.25
2023-01-25T01:41:02.122Z,99029.97
2023-01-25T01:43:31.004Z,99029.31
2023-01-25T01:46:04.319Z,99033.81
2023-01-25T01:48:42.844Z,99035.50
2023-01-25T01:51:18.534Z,99039.59
2023-01-25T01:53:48.715Z,99034.84
2023-01-25T01:56:17.790Z,99039.47
2023-01-25T01:58:45.255Z,99035.28
2023-01-25T02:01:11.897Z,99034.56
2023-01-25T02:03:38.924Z,99034.28
2023-01-25T02:06:11.058Z,99036.47
2023-01-25T02:08:40.749Z,99031.84
2023-01-25T02:11:09.091Z,99024.94
2023-01-25T02:13:36.203Z,99028.47
2023-01-25T02:16:03.539Z,99030.09
2023-01-25T02:18:30.635Z,99021.47
2023-01-25T02:20:58.387Z,99014.13
2023-01-25T02:23:41.065Z,99021.91
2023-01-25T02:26:09.456Z,99018.81
2023-01-25T02:28:38.974Z,99014.41
2023-01-25T02:31:06.006Z,99012.09
2023-01-25T02:33:32.737Z,99022.03
2023-01-25T02:36:12.895Z,99011.53
2023-01-25T02:38:48.420Z,99012.13
2023-01-25T02:41:21.609Z,99010.38
2023-01-25T02:43:48.098Z,99004.19
2023-01-25T02:46:20.153Z,99005.50
2023-01-25T02:48:46.708Z,98996.09
2023-01-25T02:51:13.299Z,99003.28
2023-01-25T02:53:40.443Z,99001.31
2023-01-25T02:56:07.216Z,98988.72
2023-01-25T02:58:33.760Z,98992.06
2023-01-25T03:01:00.206Z,98990.66
2023-01-25T03:03:26.684Z,98989.22
2023-01-25T03:05:53.763Z,98984.63
2023-01-25T03:08:20.873Z,98974.97
2023-01-25T03:10:49.890Z,98978.50
2023-01-25T03:13:16.586Z,98974.81
2023-01-25T03:15:43.020Z,98975.53
2023-01-25T03:18:09.679Z,98973.34
2023-01-25T03:20:36.136Z,98973.44
2023-01-25T03:23:02.608Z,98979.81
2023-01-25T03:25:29.087Z,98971.06
2023-01-25T03:28:09.614Z,98969.88
2023-01-25T03:30:36.845Z,98969.09
2023-01-25T03:33:04.517Z,98969.09
2023-01-25T03:35:31.075Z,98956.25
2023-01-25T03:37:57.850Z,98957.44
2023-01-25T03:40:24.325Z,98956.81
2023-01-25T03:42:53.563Z,98960.56
2023-01-25T03:45:20.064Z,98949.28
2023-01-25T03:47:46.816Z,98952.81
2023-01-25T03:50:14.254Z,98958.06
2023-01-25T03:52:45.268Z,98961.47
2023-01-25T03:55:12.075Z,98954.22
2023-01-25T03:57:41.465Z,98954.34
2023-01-25T04:00:09.221Z,98958.69
2023-01-25T04:02:48.853Z,98957.75
2023-01-25T04:05:18.388Z,98960.81
2023-01-25T04:07:45.199Z,98953.38
2023-01-25T04:10:12.794Z,98950.50
2023-01-25T04:12:43.438Z,98943.09
2023-01-25T04:15:10.609Z,98945.78
2023-01-25T04:17:37.315Z,98941.91
2023-01-25T04:20:21.126Z,98932.66
2023-01-25T04:22:47.745Z,98935.47
2023-01-25T04:25:16.040Z,98932.03
2023-01-25T04:27:47.879Z,98932.41
2023-01-25T04:30:16.109Z,98933.28
2023-01-25T04:32:44.767Z,98929.69
2023-01-25T04:35:30.634Z,98925.94
2023-01-25T04:37:58.424Z,98920.84
2023-01-25T04:40:30.439Z,98927.69
2023-01-25T04:42:56.953Z,98928.13
2023-01-25T04:45:24.447Z,98938.41
2023-01-25T04:47:55.891Z,98929.03
2023-01-25T04:50:22.461Z,98937.19
2023-01-25T04:52:49.219Z,98933.75
2023-01-25T04:55:16.932Z,98940.50
2023-01-25T04:57:44.415Z,98932.13
2023-01-25T05:00:11.660Z,98940.63
2023-01-25T05:02:39.617Z,98939.59
2023-01-25T05:05:07.932Z,98940.91
2023-01-25T05:07:34.588Z,98945.09
2023-01-25T05:10:01.082Z,98944.38
2023-01-25T05:12:27.584Z,98937.78
2023-01-25T05:15:01.521Z,98936.03
2023-01-25T05:17:28.000Z,98939.72
2023-01-25T05:19:55.185Z,98929.88
2023-01-25T05:22:23.110Z,98931.38
2023-01-25T05:24:52.615Z,98938.94
2023-01-25T05:27:20.177Z,98933.75
2023-01-25T05:30:07.020Z,98936.94
2023-01-25T05:32:48.351Z,98943.84
2023-01-25T05:35:16.086Z,98933.19
2023-01-25T05:37:43.758Z,98940.50
2023-01-25T05:40:16.179Z,98937.47
2023-01-25T05:42:43.673Z,98934.47
2023-01-25T05:45:15.808Z,98941.03
2023-01-25T05:47:44.924Z,98944.97
2023-01-25T05:50:11.488Z,98954.44
2023-01-25T05:53:00.563Z,98950.72
2023-01-25T05:55:28.387Z,98947.72
2023-01-25T05:57:56.943Z,98952.16
2023-01-25T06:00:24.004Z,98944.75
2023-01-25T06:02:50.502Z,98948.81
2023-01-25T06:05:21.554Z,98957.56
2023-01-25T06:07:49.417Z,98956.25
2023-01-25T06:10:17.663Z,98970.84
2023-01-25T06:12:46.707Z,98957.34
2023-01-25T06:15:13.230Z,98972.72
2023-01-25T06:17:40.034Z,98971.44
2023-01-25T06:20:27.951Z,98971.56
2023-01-25T06:23:14.660Z,98975.16
2023-01-25T06:25:41.098Z,98980.78
2023-01-25T06:28:07.566Z,98974.31
2023-01-25T06:30:34.020Z,98979.50
2023-01-25T06:33:01.274Z,98980.50
2023-01-25T06:35:28.965Z,98975.59
2023-01-25T06:37:56.499Z,98974.31
2023-01-25T06:40:22.961Z,98979.63
2023-01-25T06:42:49.436Z,98983.22
2023-01-25T06:45:15.977Z,98984.59
2023-01-25T06:47:42.459Z,98983.94
2023-01-25T06:50:09.528Z,98992.72
2023-01-25T06:52:36.565Z,98993.97
2023-01-25T06:55:03.607Z,98998.06
2023-01-25T06:57:30.058Z,98992.63
2023-01-25T06:59:56.494Z,98990.50
2023-01-25T07:02:23.236Z,98985.06
2023-01-25T07:04:49.843Z,98982.16
2023-01-25T07:07:16.286Z,98978.56
2023-01-25T07:09:42.753Z,98985.31
2023-01-25T07:12:09.255Z,98978.72
2023-01-25T07:14:35.680Z,98975.63
2023-01-25T07:17:03.852Z,98969.69
2023-01-25T07:19:30.529Z,98974.66
2023-01-25T07:21:57.323Z,98964.88
2023-01-25T07:24:27.204Z,98963.09
2023-01-25T07:26:53.852Z,98960.28
2023-01-25T07:29:21.886Z,98951.97
2023-01-25T07:31:48.574Z,98950.56
2023-01-25T07:34:15.084Z,98949.22
2023-01-25T07:36:41.633Z,98937.72
2023-01-25T07:39:10.126Z,98935.06
2023-01-25T07:41:36.623Z,98941.00
2023-01-25T07:44:03.479Z,98941.94
2023-01-25T07:46:40.067Z,98935.50
2023-01-25T07:49:06.758Z,98937.22
2023-01-25T07:51:33.351Z,98933.34
2023-01-25T07:54:01.367Z,98938.38
2023-01-25T07:56:29.354Z,98939.56
2023-01-25T07:58:56.581Z,98945.69
2023-01-25T08:01:24.406Z,98935.97
2023-01-25T08:03:50.950Z,98930.81
2023-01-25T08:06:17.762Z,98935.69
2023-01-25T08:08:45.956Z,98935.97
2023-01-25T08:11:15.607Z,98946.03
2023-01-25T08:13:46.161Z,98937.53
2023-01-25T08:16:13.210Z,98938.75
2023-01-25T08:18:39.627Z,98937.19
2023-01-25T08:21:06.153Z,98933.41
2023-01-25T08:23:32.649Z,98928.09
2023-01-25T08:26:03.340Z,98932.97
2023-01-25T08:28:29.864Z,98928.25
2023-01-25T08:31:04.259Z,98932.19
2023-01-25T08:33:30.683Z,98935.75
2023-01-25T08:35:57.305Z,98931.22
2023-01-25T08:38:23.917Z,98944.69
2023-01-25T08:40:50.895Z,98940.34
2023-01-25T08:43:17.511Z,98939.69
2023-01-25T08:45:43.943Z,98939.00
2023-01-25T08:48:12.974Z,98935.38
2023-01-25T08:50:39.394Z,98932.44
2023-01-25T08:53:06.028Z,98931.16
2023-01-25T08:55:35.526Z,98933.16
2023-01-25T08:58:01.973Z,98937.41
2023-01-25T09:00:28.456Z,98941.13
2023-01-25T09:02:54.959Z,98922.84
2023-01-25T09:05:21.604Z,98923.69
2023-01-25T09:07:48.531Z,98920.41
2023-01-25T09:10:14.985Z,98923.19
2023-01-25T09:12:41.450Z,98923.53
2023-01-25T09:15:08.434Z,98919.91
2023-01-25T09:17:38.895Z,98917.84
2023-01-25T09:20:08.730Z,98906.44
2023-01-25T09:22:35.629Z,98914.63
2023-01-25T09:25:02.090Z,98918.00
2023-01-25T09:27:28.535Z,98922.25
2023-01-25T09:30:02.110Z,98915.53
2023-01-25T09:32:29.402Z,98915.78
2023-01-25T09:34:55.974Z,98920.78
2023-01-25T09:37:22.454Z,98906.94
2023-01-25T09:39:48.890Z,98907.09
2023-01-25T09:42:15.702Z,98899.78
2023-01-25T09:44:45.072Z,98886.44
2023-01-25T09:47:35.949Z,98891.09
2023-01-25T09:50:16.852Z,98883.47
2023-01-25T09:53:18.984Z,98882.69
2023-01-25T09:55:51.002Z,98892.41
2023-01-25T09:58:22.453Z,98879.50
2023-01-25T10:00:51.056Z,98885.38
2023-01-25T10:03:22.531Z,98885.56
2023-01-25T10:05:50.360Z,98879.44
2023-01-25T10:08:20.818Z,98873.41
2023-01-25T10:10:49.490Z,98869.25
2023-01-25T10:13:17.562Z,98860.69
2023-01-25T10:15:47.944Z,98862.03
2023-01-25T10:18:33.287Z,98852.69
2023-01-25T10:21:02.683Z,98853.28
2023-01-25T10:23:35.415Z,98852.75
2023-01-25T10:26:25.140Z,98851.28
2023-01-25T10:29:09.675Z,98846.16
2023-01-25T10:31:44.357Z,98850.16
2023-01-25T10:34:22.047Z,98840.66
2023-01-25T10:36:50.813Z,98835.31
2023-01-25T10:39:18.865Z,98827.19
2023-01-25T10:41:58.114Z,98821.72
2023-01-25T10:44:25.828Z,98823.06
2023-01-25T10:47:01.302Z,98821.03
2023-01-25T10:49:29.245Z,98817.09
2023-01-25T10:51:56.199Z,98816.91
2023-01-25T10:54:23.529Z,98812.03
2023-01-25T10:56:50.163Z,98817.31
2023-01-25T10:59:36.494Z,98810.31
2023-01-25T11:02:41.775Z,98804.03
2023-01-25T11:05:26.966Z,98795.34
2023-01-25T11:07:53.692Z,98790.81
2023-01-25T11:10:33.735Z,98791.81
2023-01-25T11:13:15.388Z,98785.91
2023-01-25T11:15:44.714Z,98776.56
2023-01-25T11:18:18.507Z,98774.38
2023-01-25T11:20:44.971Z,98765.22
2023-01-25T11:23:23.693Z,98772.28
2023-01-25T11:25:50.134Z,98761.81
2023-01-25T11:28:18.654Z,98763.19
2023-01-25T11:30:45.688Z,98764.53
2023-01-25T11:33:12.992Z,98756.59
2023-01-25T11:35:58.348Z,98750.06
2023-01-25T11:38:24.953Z,98741.97
2023-01-25T11:41:10.089Z,98742.72
2023-01-25T11:43:39.586Z,98736.16
2023-01-25T11:46:24.714Z,98726.53
2023-01-25T11:48:57.025Z,98721.44
2023-01-25T11:51:26.331Z,98723.69
2023-01-25T11:53:52.779Z,98717.47
2023-01-25T11:56:31.134Z,98720.88
2023-01-25T11:59:06.641Z,98708.59
2023-01-25T12:01:54.441Z,98706.22
2023-01-25T12:04:32.184Z,98707.81
2023-01-25T12:07:03.193Z,98698.66
2023-01-25T12:09:39.072Z,98693.50
2023-01-25T12:12:23.808Z,98695.34
2023-01-25T12:15:08.512Z,98688.59
2023-01-25T12:17:43.863Z,98683.00
2023-01-25T12:20:31.401Z,98676.69
2023-01-25T12:23:11.074Z,98685.63
2023-01-25T12:25:43.763Z,98674.41
2023-01-25T12:28:15.641Z,98674.38
2023-01-25T12:30:50.391Z,98663.22
2023-01-25T12:33:28.400Z,98659.56
2023-01-25T12:36:00.386Z,98658.78
2023-01-25T12:38:26.829Z,98653.25
2023-01-25T12:41:04.118Z,98649.75
2023-01-25T12:43:37.625Z,98649.59
2023-01-25T12:46:09.256Z,98645.28
2023-01-25T12:48:41.235Z,98644.72
2023-01-25T12:51:08.463Z,98646.72
2023-01-25T12:53:46.998Z,98633.75
2023-01-25T12:56:32.230Z,98631.41
2023-01-25T12:59:18.932Z,98637.66
2023-01-25T13:01:55.733Z,98621.22
2023-01-25T13:04:43.549Z,98618.09
2023-01-25T13:07:19.636Z,98622.44
2023-01-25T13:10:18.381Z,98616.88
2023-01-25T13:13:00.541Z,98615.06
2023-01-25T13:15:39.835Z,98608.66
2023-01-25T13:18:26.903Z,98612.28
2023-01-25T13:20:58.002Z,98612.84
2023-01-25T13:23:43.730Z,98617.06
2023-01-25T13:26:22.430Z,98613.63
2023-01-25T13:28:49.952Z,98605.59
2023-01-25T13:31:50.663Z,98610.38
2023-01-25T13:34:36.354Z,98604.28
2023-01-25T13:37:13.314Z,98605.56
2023-01-25T13:39:44.297Z,98611.97
2023-01-25T13:42:10.724Z,98608.38
2023-01-25T13:44:39.457Z,98609.53
2023-01-25T13:47:10.731Z,98603.03
2023-01-25T13:49:40.855Z,98596.50
2023-01-25T13:52:07.316Z,98596.81
2023-01-25T13:54:42.163Z,98600.97
2023-01-25T13:57:15.876Z,98600.13
2023-01-25T13:59:42.334Z,98597.25
2023-01-25T14:02:18.699Z,98598.56
2023-01-25T14:04:46.927Z,98586.81
2023-01-25T14:07:16.217Z,98583.06
2023-01-25T14:09:44.974Z,98591.97
2023-01-25T14:12:12.307Z,98583.94
2023-01-25T14:14:38.814Z,98581.63
2023-01-25T14:19:37.427Z,98589.09
2023-01-25T14:22:22.466Z,98579.94
2023-01-25T14:25:02.275Z,98583.97
2023-01-25T14:27:28.807Z,98589.75
2023-01-25T14:29:55.280Z,98583.03
2023-01-25T14:32:23.071Z,98588.75
2023-01-25T14:34:49.546Z,98578.31
2023-01-25T14:37:22.911Z,98578.53
2023-01-25T14:39:50.864Z,98581.41
2023-01-25T14:42:17.759Z,98580.81
2023-01-25T14:44:45.179Z,98574.34
2023-01-25T14:47:25.052Z,98582.25
2023-01-25T14:49:51.531Z,98583.13
2023-01-25T14:52:19.434Z,98589.13
2023-01-25T14:54:49.986Z,98586.47
2023-01-25T14:57:39.792Z,98585.19
2023-01-25T15:00:31.698Z,98587.41
2023-01-25T15:03:02.101Z,98596.84
2023-01-25T15:05:33.989Z,98588.13
2023-01-25T15:08:06.193Z,98579.69
2023-01-25T15:10:33.836Z,98579.66
2023-01-25T15:13:18.410Z,98579.41
2023-01-25T15:15:58.834Z,98582.09
2023-01-25T15:18:40.772Z,98575.91
2023-01-25T15:21:15.178Z,98580.03
2023-01-25T15:23:42.389Z,98581.03
2023-01-25T15:26:13.197Z,98570.31
2023-01-25T15:28:39.611Z,98575.56
2023-01-25T15:31:06.282Z,98583.31
2023-01-25T15:33:34.389Z,98571.00
2023-01-25T15:36:00.825Z,98582.75
2023-01-25T15:38:27.480Z,98574.38
2023-01-25T15:41:00.246Z,98577.88
2023-01-25T15:43:26.901Z,98577.97
2023-01-25T15:45:56.665Z,98584.69
2023-01-25T15:48:27.462Z,98589.81
2023-01-25T15:50:55.512Z,98582.78
2023-01-25T15:53:21.981Z,98576.41
2023-01-25T15:55:50.704Z,98566.09
2023-01-25T15:58:21.046Z,98575.19
2023-01-25T16:00:49.337Z,98575.72
2023-01-25T16:03:16.152Z,98572.56
2023-01-25T16:05:42.856Z,98565.69
2023-01-25T16:08:15.284Z,98572.66
2023-01-25T16:10:42.087Z,98575.03
2023-01-25T16:13:09.132Z,98585.66
2023-01-25T16:15:36.463Z,98575.91
2023-01-25T16:18:02.924Z,98581.38
2023-01-25T16:20:29.394Z,98582.97
2023-01-25T16:22:55.914Z,98567.66
2023-01-25T16:25:22.536Z,98566.63
2023-01-25T16:27:49.372Z,98566.78
2023-01-25T16:30:24.085Z,98574.69
2023-01-25T16:32:51.512Z,98578.53
2023-01-25T16:35:18.123Z,98577.06
2023-01-25T16:37:44.694Z,98580.53
2023-01-25T16:40:29.982Z,98570.94
2023-01-25T16:42:56.802Z,98570.34
2023-01-25T16:45:24.177Z,98564.22
2023-01-25T16:47:51.413Z,98555.69
2023-01-25T16:50:21.960Z,98563.72
2023-01-25T16:52:51.705Z,98561.47
2023-01-25T16:55:18.971Z,98566.03
2023-01-25T16:57:49.018Z,98556.00
2023-01-25T17:00:15.928Z,98563.53
2023-01-25T17:02:53.457Z,98557.97
2023-01-25T17:05:26.423Z,98556.75
2023-01-25T17:07:52.949Z,98566.09
2023-01-25T17:10:19.451Z,98562.63
2023-01-25T17:12:46.182Z,98573.09
2023-01-25T17:15:12.699Z,98564.25
2023-01-25T17:17:39.186Z,98561.47
2023-01-25T17:20:06.022Z,98561.53
2023-01-25T17:22:37.319Z,98556.72
2023-01-25T17:25:04.965Z,98555.47
2023-01-25T17:27:31.421Z,98555.28
2023-01-25T17:29:57.840Z,98551.19
2023-01-25T17:32:24.494Z,98553.69
2023-01-25T17:34:51.014Z,98550.78
2023-01-25T17:37:17.451Z,98541.50
2023-01-25T17:39:45.076Z,98553.06
2023-01-25T17:42:13.181Z,98548.28
2023-01-25T17:44:39.861Z,98552.91
2023-01-25T17:47:06.328Z,98545.66
2023-01-25T17:49:32.833Z,98547.53
2023-01-25T17:51:59.299Z,98539.69
2023-01-25T17:54:25.800Z,98534.09
2023-01-25T17:56:54.035Z,98546.19
2023-01-25T17:59:20.485Z,98547.47
2023-01-25T18:01:48.131Z,98535.03
2023-01-25T18:04:17.466Z,98519.56
2023-01-25T18:06:44.207Z,98518.97
2023-01-25T18:09:10.677Z,98524.97
2023-01-25T18:11:37.934Z,98530.00
2023-01-25T18:14:08.159Z,98524.94
2023-01-25T18:16:36.341Z,98520.47
2023-01-25T18:19:03.829Z,98518.44
2023-01-25T18:21:32.180Z,98519.22
2023-01-25T18:24:03.806Z,98516.22
2023-01-25T18:26:32.129Z,98505.28
2023-01-25T18:29:01.202Z,98500.75
2023-01-25T18:31:27.832Z,98504.88
2023-01-25T18:33:54.565Z,98501.53
2023-01-25T18:36:21.018Z,98490.34
2023-01-25T18:38:47.528Z,98488.78
2023-01-25T18:41:14.001Z,98479.53
2023-01-25T18:43:40.470Z,98487.25
2023-01-25T18:46:06.943Z,98478.84
2023-01-25T18:48:33.503Z,98476.63
2023-01-25T18:51:04.162Z,98472.34
2023-01-25T18:53:31.791Z,98459.47
2023-01-25T18:56:02.869Z,98457.22
2023-01-25T18:58:30.549Z,98457.75
2023-01-25T19:01:03.047Z,98459.63
2023-01-25T19:03:30.465Z,98455.84
2023-01-25T19:05:58.295Z,98446.78
2023-01-25T19:08:28.232Z,98443.53
2023-01-25T19:10:58.767Z,98450.53
2023-01-25T19:13:25.324Z,98440.69
2023-01-25T19:15:59.288Z,98449.19
2023-01-25T19:18:28.420Z,98435.78
2023-01-25T19:20:54.844Z,98439.56
2023-01-25T19:23:21.282Z,98434.22
2023-01-25T19:25:52.619Z,98425.41
2023-01-25T19:28:19.063Z,98424.34
2023-01-25T19:30:45.607Z,98417.59
2023-01-25T19:33:12.238Z,98414.00
2023-01-25T19:35:38.690Z,98406.09
2023-01-25T19:38:05.163Z,98401.63
2023-01-25T19:40:31.593Z,98403.16
2023-01-25T19:42:58.066Z,98401.31
2023-01-25T19:45:24.485Z,98395.28
2023-01-25T19:47:50.995Z,98392.78
2023-01-25T19:50:17.537Z,98388.41
2023-01-25T19:52:44.064Z,98388.91
2023-01-25T19:55:10.869Z,98389.41
2023-01-25T19:57:38.447Z,98386.59
2023-01-25T20:00:05.400Z,98390.63
2023-01-25T20:02:33.087Z,98387.53
2023-01-25T20:04:59.551Z,98386.66
2023-01-25T20:07:27.731Z,98381.09
2023-01-25T20:09:54.231Z,98373.47
2023-01-25T20:12:20.656Z,98365.25
2023-01-25T20:14:47.133Z,98358.19
2023-01-25T20:17:14.142Z,98363.88
2023-01-25T20:19:40.543Z,98358.75
2023-01-25T20:22:07.106Z,98350.91
2023-01-25T20:24:33.522Z,98347.56
2023-01-25T20:26:59.994Z,98346.19
2023-01-25T20:29:28.533Z,98342.94
2023-01-25T20:31:55.039Z,98343.09
2023-01-25T20:34:22.637Z,98338.47
2023-01-25T20:36:50.302Z,98339.00
2023-01-25T20:39:18.646Z,98331.59
2023-01-25T20:41:45.925Z,98325.97
2023-01-25T20:44:17.067Z,98320.53
2023-01-25T20:46:44.014Z,98319.94
2023-01-25T20:49:13.957Z,98320.53
2023-01-25T20:51:40.501Z,98312.50
2023-01-25T20:54:06.969Z,98309.84
2023-01-25T20:56:33.480Z,98304.41
2023-01-25T20:59:00.053Z,98306.84
2023-01-25T21:01:31.334Z,98301.41
2023-01-25T21:03:58.153Z,98303.41
2023-01-25T21:06:25.626Z,98295.41
2023-01-25T21:08:52.144Z,98295.91
2023-01-25T21:11:18.912Z,98292.53
2023-01-25T21:13:45.360Z,98290.69
2023-01-25T21:16:16.115Z,98287.66
2023-01-25T21:18:43.329Z,98289.81
2023-01-25T21:21:11.034Z,98282.78
2023-01-25T21:23:38.885Z,98285.94
2023-01-25T21:26:05.863Z,98276.78
2023-01-25T21:28:33.107Z,98270.50
2023-01-25T21:31:06.926Z,98275.81
2023-01-25T21:33:33.554Z,98266.44
2023-01-25T21:36:00.632Z,98265.31
2023-01-25T21:38:27.137Z,98263.88
2023-01-25T21:40:59.372Z,98257.59
2023-01-25T21:43:25.795Z,98256.44
2023-01-25T21:46:10.918Z,98248.84
2023-01-25T21:48:55.894Z,98247.03
2023-01-25T21:51:39.528Z,98246.81
2023-01-25T21:54:06.035Z,98245.44
2023-01-25T21:56:32.461Z,98243.38
2023-01-25T21:58:58.969Z,98242.59
2023-01-25T22:01:25.409Z,98242.09
2023-01-25T22:03:52.088Z,98232.63
2023-01-25T22:06:18.673Z,98230.94
2023-01-25T22:08:45.258Z,98225.75
2023-01-25T22:11:11.766Z,98225.53
2023-01-25T22:13:38.363Z,98226.44
2023-01-25T22:16:06.052Z,98214.78
2023-01-25T22:18:35.651Z,98222.31
2023-01-25T22:21:03.835Z,98209.16
2023-01-25T22:23:30.667Z,98215.50
2023-01-25T22:26:01.407Z,98208.16
2023-01-25T22:28:28.036Z,98209.69
2023-01-25T22:30:54.581Z,98201.78
2023-01-25T22:33:21.570Z,98200.94
2023-01-25T22:35:47.994Z,98201.84
2023-01-25T22:38:14.495Z,98194.28
2023-01-25T22:40:41.061Z,98193.38
2023-01-25T22:43:07.480Z,98187.06
2023-01-25T22:45:33.939Z,98187.91
2023-01-25T22:48:00.438Z,98178.28
2023-01-25T22:50:26.864Z,98171.31
2023-01-25T22:52:53.342Z,98171.72
2023-01-25T22:55:19.802Z,98167.59
2023-01-25T22:57:46.213Z,98161.09
2023-01-25T23:00:13.221Z,98157.09
2023-01-25T23:02:39.722Z,98151.19
2023-01-25T23:05:06.429Z,98147.47
2023-01-25T23:07:32.879Z,98146.38
2023-01-25T23:09:59.444Z,98145.97
2023-01-25T23:12:25.929Z,98142.78
2023-01-25T23:14:53.630Z,98140.59
2023-01-25T23:17:39.752Z,98146.13
2023-01-25T23:20:07.106Z,98147.59
2023-01-25T23:22:33.668Z,98141.66
2023-01-25T23:25:00.182Z,98137.94
2023-01-25T23:27:26.650Z,98132.88
2023-01-25T23:29:53.109Z,98136.19
2023-01-25T23:32:19.753Z,98135.56
2023-01-25T23:34:46.225Z,98133.84
2023-01-25T23:37:13.627Z,98135.25
2023-01-25T23:39:40.834Z,98129.00
2023-01-25T23:42:07.239Z,98122.84
2023-01-25T23:44:33.655Z,98122.31
2023-01-25T23:47:01.574Z,98114.94
2023-01-25T23:49:28.030Z,98117.16
2023-01-25T23:51:54.957Z,98113.22
2023-01-25T23:54:21.423Z,98109.06
2023-01-25T23:56:48.033Z,98105.31
2023-01-25T23:59:14.461Z,98097.28
